Time;durP1;ratioP1;P1;durP2;ratioP2;P2;SDS_P1;SDS_P2;PMS_P1;PMS_P2;Temp;Humidity;BMP_temperature;BMP_pressure;BME280_temperature;BME280_humidity;BME280_pressure;Samples;Min_cycle;Max_cycle;Signal;HPM_P1;HPM_P2
2021/12/03 00:01:10;;;;;;;26.42;23.80;;;0.60;91.90;0.20;96606.00;;;;4960147;28;88374;-62
2021/12/03 00:03:37;;;;;;;25.45;22.73;;;0.60;91.90;0.20;96593.00;;;;4962147;28;86995;-63
2021/12/03 00:06:04;;;;;;;29.20;25.02;;;0.70;91.90;0.20;96611.00;;;;4961481;28;87948;-64
2021/12/03 00:08:31;;;;;;;24.63;22.15;;;0.60;91.90;0.30;96622.00;;;;4961146;28;86980;-64
2021/12/03 00:11:00;;;;;;;30.05;26.95;;;0.70;91.90;0.30;96632.00;;;;4962294;28;87733;-63
2021/12/03 00:13:32;;;;;;;23.52;21.23;;;0.70;91.90;0.20;96624.00;;;;4961875;28;87496;-63
2021/12/03 00:15:59;;;;;;;26.15;23.20;;;0.70;91.90;0.20;96627.00;;;;4969145;28;87191;-64
2021/12/03 00:18:26;;;;;;;25.40;22.75;;;0.70;91.90;0.30;96632.00;;;;4961944;28;87190;-62
2021/12/03 00:20:53;;;;;;;26.27;23.55;;;0.70;91.90;0.30;96624.00;;;;4961806;28;87692;-63
2021/12/03 00:23:21;;;;;;;25.85;23.17;;;0.70;91.90;0.30;96620.00;;;;4967660;28;88414;-63
2021/12/03 00:25:47;;;;;;;29.25;26.25;;;0.70;91.90;0.30;96619.00;;;;4981575;28;87105;-64
2021/12/03 00:28:14;;;;;;;26.70;24.02;;;0.70;91.90;0.30;96630.00;;;;4981617;28;87292;-63
2021/12/03 00:30:40;;;;;;;29.00;26.00;;;0.70;91.90;0.30;96627.00;;;;4981182;28;88641;-63
2021/12/03 00:33:08;;;;;;;27.95;25.15;;;0.70;91.90;0.30;96611.00;;;;4981128;28;88472;-63
2021/12/03 00:35:35;;;;;;;30.30;27.23;;;0.70;92.00;0.30;96618.00;;;;4981485;28;87117;-64
2021/12/03 00:38:02;;;;;;;30.35;27.25;;;0.70;92.00;0.30;96618.00;;;;4981408;28;87044;-63
2021/12/03 00:40:35;;;;;;;28.35;25.23;;;0.70;92.00;0.30;96618.00;;;;4980977;28;87424;-61
2021/12/03 00:43:03;;;;;;;24.75;22.25;;;0.70;92.00;0.30;96608.00;;;;4981034;28;87310;-61
2021/12/03 00:45:31;;;;;;;26.42;23.77;;;0.70;92.00;0.30;96606.00;;;;4980591;28;87158;-61
2021/12/03 00:47:58;;;;;;;23.67;21.08;;;0.70;92.00;0.40;96605.00;;;;4981590;28;86596;-61
2021/12/03 00:50:27;;;;;;;25.67;23.00;;;0.80;92.10;0.40;96614.00;;;;4989825;28;88908;-61
2021/12/03 00:52:54;;;;;;;28.17;25.38;;;0.80;92.40;0.40;96621.00;;;;4980753;28;87539;-61
2021/12/03 00:55:23;;;;;;;24.45;21.98;;;0.80;92.00;0.40;96620.00;;;;4978741;28;88197;-60
2021/12/03 00:57:49;;;;;;;23.63;20.92;;;0.80;92.10;0.40;96611.00;;;;4960962;28;87351;-60
2021/12/03 01:00:27;;;;;;;23.00;20.70;;;0.80;92.10;0.40;96626.00;;;;4961149;28;88812;-62
2021/12/03 01:02:57;;;;;;;24.92;22.42;;;0.80;92.10;0.40;96621.00;;;;4961260;28;87553;-62
2021/12/03 01:05:23;;;;;;;22.80;20.48;;;0.80;92.10;0.40;96628.00;;;;4960214;28;87417;-61
2021/12/03 01:07:50;;;;;;;23.83;21.52;;;0.90;92.10;0.50;96626.00;;;;4960721;28;87159;-60
2021/12/03 01:10:17;;;;;;;25.95;23.25;;;0.90;92.10;0.40;96622.00;;;;4961155;28;88145;-61
2021/12/03 01:12:43;;;;;;;25.48;22.88;;;0.90;92.10;0.40;96624.00;;;;4961131;28;87503;-62
2021/12/03 01:15:14;;;;;;;24.50;21.95;;;0.80;92.00;0.50;96624.00;;;;4962579;28;87172;-62
2021/12/03 01:17:40;;;;;;;22.83;20.53;;;0.90;92.10;0.50;96636.00;;;;4980617;28;87444;-62
2021/12/03 01:20:09;;;;;;;21.83;19.63;;;0.90;92.10;0.50;96634.00;;;;4979496;28;88217;-61
2021/12/03 01:22:36;;;;;;;23.05;20.77;;;0.90;92.10;0.50;96638.00;;;;4995927;28;88863;-61
2021/12/03 01:25:05;;;;;;;20.00;18.10;;;0.90;92.00;0.50;96640.00;;;;4980165;28;87445;-61
2021/12/03 01:27:32;;;;;;;22.33;20.13;;;0.90;92.00;0.50;96637.00;;;;4980667;28;87285;-59
2021/12/03 01:29:58;;;;;;;22.42;20.17;;;1.00;92.10;0.50;96639.00;;;;4979143;28;87958;-60
2021/12/03 01:32:24;;;;;;;21.98;19.35;;;1.00;92.10;0.50;96655.00;;;;4980451;28;87355;-60
2021/12/03 01:34:50;;;;;;;19.65;17.77;;;1.00;92.10;0.60;96640.00;;;;4980471;28;87381;-61
2021/12/03 01:37:16;;;;;;;18.95;16.77;;;1.00;92.00;0.60;96647.00;;;;4980579;28;86319;-61
2021/12/03 01:39:42;;;;;;;18.65;16.65;;;1.10;92.00;0.70;96655.00;;;;4979965;28;87649;-60
2021/12/03 01:42:09;;;;;;;19.85;17.85;;;1.10;91.90;0.70;96657.00;;;;4980426;28;87380;-60
2021/12/03 01:44:35;;;;;;;20.17;18.02;;;1.10;91.70;0.70;96659.00;;;;4995375;28;88198;-60
2021/12/03 01:47:01;;;;;;;22.73;20.52;;;1.10;91.70;0.70;96658.00;;;;4996080;28;87527;-61
2021/12/03 01:49:27;;;;;;;20.67;18.48;;;1.10;91.70;0.70;96662.00;;;;4978015;28;87692;-61
2021/12/03 01:51:53;;;;;;;20.52;18.38;;;1.20;91.80;0.70;96667.00;;;;4960360;28;87993;-61
2021/12/03 01:54:19;;;;;;;20.50;18.38;;;1.10;91.60;0.70;96668.00;;;;4959482;28;86965;-62
2021/12/03 01:56:45;;;;;;;19.00;17.13;;;1.10;91.80;0.70;96665.00;;;;4973683;28;87460;-61
2021/12/03 01:59:11;;;;;;;18.40;16.60;;;1.10;91.70;0.70;96664.00;;;;4979812;28;87596;-61
2021/12/03 02:01:37;;;;;;;19.80;17.90;;;1.20;91.70;0.70;96660.00;;;;4980037;28;87922;-60
2021/12/03 02:04:07;;;;;;;20.90;18.80;;;1.20;91.50;0.70;96672.00;;;;4979541;28;87087;-60
2021/12/03 02:06:34;;;;;;;18.95;17.13;;;1.10;91.60;0.70;96684.00;;;;4979809;28;87023;-59
2021/12/03 02:09:01;;;;;;;18.83;16.95;;;1.20;91.70;0.70;96670.00;;;;4978693;28;88672;-60
2021/12/03 02:11:28;;;;;;;19.73;17.88;;;1.20;91.60;0.70;96683.00;;;;4979829;28;88404;-60
2021/12/03 02:13:55;;;;;;;20.58;18.48;;;1.20;91.50;0.70;96682.00;;;;4995657;28;87558;-61
2021/12/03 02:16:22;;;;;;;20.45;17.55;;;1.10;91.50;0.70;96685.00;;;;4967914;28;87209;-61
2021/12/03 02:18:49;;;;;;;20.55;18.48;;;1.10;91.50;0.70;96680.00;;;;4975353;28;87652;-61
2021/12/03 02:21:17;;;;;;;19.92;17.90;;;1.10;91.50;0.70;96694.00;;;;4961834;28;87336;-61
2021/12/03 02:23:43;;;;;;;20.05;17.98;;;1.20;91.70;0.70;96691.00;;;;4960304;28;87302;-60
2021/12/03 02:26:10;;;;;;;21.00;18.90;;;1.20;91.60;0.70;96687.00;;;;4960467;28;86411;-63
2021/12/03 02:28:46;;;;;;;20.52;18.42;;;1.20;91.50;0.70;96694.00;;;;4959523;28;87580;-61
2021/12/03 02:31:15;;;;;;;21.80;19.48;;;1.10;91.50;0.70;96690.00;;;;4956394;28;87829;-61
2021/12/03 02:33:42;;;;;;;20.55;17.98;;;1.20;91.60;0.70;96684.00;;;;4959345;28;88546;-61
2021/12/03 02:36:09;;;;;;;21.40;19.13;;;1.20;91.50;0.70;96675.00;;;;4960070;28;87286;-61
2021/12/03 02:38:35;;;;;;;19.83;17.90;;;1.10;91.40;0.70;96679.00;;;;4959680;28;87710;-60
2021/12/03 02:41:03;;;;;;;22.60;19.23;;;1.20;91.50;0.80;96688.00;;;;4958754;28;88212;-60
2021/12/03 02:43:30;;;;;;;20.17;18.25;;;1.20;91.50;0.80;96694.00;;;;4959406;28;87065;-60
2021/12/03 02:45:57;;;;;;;19.58;17.58;;;1.20;91.50;0.80;96683.00;;;;4959986;28;87408;-60
2021/12/03 02:48:25;;;;;;;21.85;19.55;;;1.20;91.40;0.80;96688.00;;;;4959277;28;87664;-60
2021/12/03 02:50:53;;;;;;;21.45;19.33;;;1.20;91.40;0.80;96698.00;;;;4988464;28;87996;-62
2021/12/03 02:53:19;;;;;;;22.33;20.05;;;1.20;91.40;0.70;96695.00;;;;4979194;28;87327;-62
2021/12/03 02:55:45;;;;;;;22.42;20.08;;;1.20;91.40;0.70;96707.00;;;;4974134;28;87524;-62
2021/12/03 02:58:12;;;;;;;21.40;19.30;;;1.20;91.40;0.70;96694.00;;;;4958791;28;88707;-59
2021/12/03 03:00:41;;;;;;;22.83;19.73;;;1.20;91.50;0.80;96712.00;;;;4959373;28;88509;-60
2021/12/03 03:03:07;;;;;;;22.02;19.77;;;1.20;91.50;0.80;96712.00;;;;4941871;28;87101;-60
2021/12/03 03:05:34;;;;;;;24.20;20.83;;;1.10;91.40;0.70;96712.00;;;;4958307;28;87149;-61
2021/12/03 03:08:00;;;;;;;24.30;21.70;;;1.20;91.50;0.70;96709.00;;;;4958629;28;87212;-61
2021/12/03 03:10:30;;;;;;;24.67;22.20;;;1.10;91.50;0.70;96716.00;;;;4959216;28;87091;-61
2021/12/03 03:12:59;;;;;;;22.08;19.85;;;1.10;91.50;0.70;96712.00;;;;4959478;28;87331;-61
2021/12/03 03:15:25;;;;;;;22.00;19.70;;;1.20;91.60;0.80;96717.00;;;;4963550;28;86761;-61
2021/12/03 03:17:52;;;;;;;21.80;19.50;;;1.20;91.60;0.80;96725.00;;;;4978870;28;87721;-61
2021/12/03 03:20:19;;;;;;;20.67;18.13;;;1.20;91.50;0.80;96736.00;;;;4994257;28;89930;-61
2021/12/03 03:22:47;;;;;;;21.45;19.08;;;1.20;91.50;0.90;96725.00;;;;4993465;28;87971;-61
2021/12/03 03:25:16;;;;;;;24.65;19.27;;;1.30;91.40;0.90;96721.00;;;;4978586;28;87166;-61
2021/12/03 03:27:43;;;;;;;22.27;19.90;;;1.30;91.40;0.90;96729.00;;;;4958951;28;87806;-61
2021/12/03 03:30:12;;;;;;;22.58;20.20;;;1.30;91.40;0.90;96726.00;;;;4958411;28;87448;-61
2021/12/03 03:32:40;;;;;;;20.77;18.75;;;1.30;91.40;0.90;96728.00;;;;4959362;28;86943;-61
2021/12/03 03:35:07;;;;;;;22.88;19.23;;;1.30;91.30;1.00;96726.00;;;;4957469;28;87325;-61
2021/12/03 03:37:34;;;;;;;21.50;19.23;;;1.30;91.40;1.00;96730.00;;;;4958849;28;88142;-61
2021/12/03 03:40:01;;;;;;;23.80;20.80;;;1.30;91.20;1.00;96727.00;;;;4958920;28;87266;-61
2021/12/03 03:42:27;;;;;;;21.92;19.73;;;1.40;91.20;1.00;96727.00;;;;4959129;28;87309;-61
2021/12/03 03:44:53;;;;;;;21.52;19.33;;;1.40;91.20;1.00;96727.00;;;;4958833;28;87463;-59
2021/12/03 03:47:20;;;;;;;21.98;19.70;;;1.40;91.10;1.10;96730.00;;;;4957244;28;88771;-61
2021/12/03 03:49:46;;;;;;;22.52;20.30;;;1.50;91.10;1.10;96730.00;;;;4961978;28;89366;-61
2021/12/03 03:52:12;;;;;;;22.27;19.08;;;1.40;91.00;1.10;96729.00;;;;4978362;28;86987;-61
2021/12/03 03:54:38;;;;;;;24.15;20.95;;;1.40;91.00;1.10;96731.00;;;;4993855;28;87053;-62
2021/12/03 03:57:04;;;;;;;23.77;21.27;;;1.40;91.00;1.10;96741.00;;;;4972881;28;88824;-61
2021/12/03 03:59:31;;;;;;;24.42;21.83;;;1.40;91.00;1.10;96733.00;;;;4976511;28;88010;-61
2021/12/03 04:01:57;;;;;;;26.90;20.83;;;1.40;91.00;1.10;96732.00;;;;4976765;28;87278;-61
2021/12/03 04:04:25;;;;;;;23.13;20.42;;;1.40;91.00;1.10;96747.00;;;;4979031;28;86352;-61
2021/12/03 04:06:52;;;;;;;22.52;20.08;;;1.50;91.00;1.20;96748.00;;;;4977997;28;87550;-60
2021/12/03 04:09:18;;;;;;;24.67;21.55;;;1.50;91.00;1.20;96754.00;;;;4976947;28;87447;-61
2021/12/03 04:11:44;;;;;;;22.42;20.27;;;1.50;90.90;1.20;96758.00;;;;4977657;28;88189;-61
2021/12/03 04:14:11;;;;;;;26.00;23.08;;;1.50;90.90;1.20;96755.00;;;;4977236;28;87250;-60
2021/12/03 04:16:38;;;;;;;22.38;20.08;;;1.50;90.80;1.20;96761.00;;;;4958888;28;87677;-60
2021/12/03 04:19:04;;;;;;;23.13;19.95;;;1.50;90.90;1.20;96773.00;;;;4961651;28;87449;-61
2021/12/03 04:21:30;;;;;;;22.00;19.55;;;1.60;90.80;1.30;96767.00;;;;4961787;28;87358;-60
2021/12/03 04:23:56;;;;;;;21.80;19.45;;;1.60;90.70;1.30;96753.00;;;;4971970;28;87541;-61
2021/12/03 04:26:22;;;;;;;19.55;17.45;;;1.60;90.70;1.30;96770.00;;;;4981182;28;88449;-61
2021/12/03 04:28:49;;;;;;;20.65;18.65;;;1.60;90.50;1.40;96776.00;;;;4981196;28;87442;-61
2021/12/03 04:31:15;;;;;;;20.77;18.67;;;1.70;90.50;1.30;96767.00;;;;4981219;28;87284;-61
2021/12/03 04:33:41;;;;;;;22.83;20.42;;;1.60;90.40;1.30;96781.00;;;;4981073;28;87333;-61
2021/12/03 04:36:07;;;;;;;22.65;20.48;;;1.60;90.30;1.20;96776.00;;;;4980465;28;88673;-61
2021/12/03 04:38:34;;;;;;;21.90;19.63;;;1.50;90.40;1.10;96768.00;;;;4980679;28;88363;-61
2021/12/03 04:41:01;;;;;;;22.58;19.52;;;1.50;90.50;1.10;96771.00;;;;4980620;28;87221;-62
2021/12/03 04:43:29;;;;;;;23.75;19.92;;;1.40;90.50;1.10;96768.00;;;;4981017;28;87051;-61
2021/12/03 04:45:55;;;;;;;21.55;19.45;;;1.40;90.50;1.10;96779.00;;;;4980469;28;87759;-60
2021/12/03 04:48:22;;;;;;;20.67;18.58;;;1.50;90.50;1.10;96768.00;;;;4979381;28;87393;-61
2021/12/03 04:50:48;;;;;;;20.05;17.80;;;1.50;90.40;1.20;96776.00;;;;4980546;28;87453;-61
2021/12/03 04:53:15;;;;;;;21.17;18.60;;;1.50;90.50;1.30;96777.00;;;;4979975;28;86284;-62
2021/12/03 04:55:42;;;;;;;21.50;19.17;;;1.60;90.40;1.40;96788.00;;;;4975858;28;87809;-60
2021/12/03 04:58:08;;;;;;;20.85;18.63;;;1.70;90.20;1.40;96798.00;;;;4961165;28;87357;-62
2021/12/03 05:00:54;;;;;;;23.35;19.45;;;1.70;90.00;1.40;96792.00;;;;4958965;28;88033;-60
2021/12/03 05:03:24;;;;;;;25.77;19.65;;;1.70;90.00;1.40;96795.00;;;;4960988;28;87400;-62
2021/12/03 05:05:55;;;;;;;21.00;18.80;;;1.70;90.00;1.40;96808.00;;;;4959974;28;87614;-62
2021/12/03 05:08:28;;;;;;;20.98;18.75;;;1.80;90.00;1.50;96803.00;;;;4957769;28;87364;-62
2021/12/03 05:10:57;;;;;;;21.17;17.40;;;1.80;90.00;1.50;96812.00;;;;4960966;28;87528;-62
2021/12/03 05:13:31;;;;;;;22.75;18.77;;;1.80;90.00;1.50;96828.00;;;;4959922;28;87322;-62
2021/12/03 05:15:58;;;;;;;19.38;17.38;;;1.80;89.50;1.50;96822.00;;;;4968145;28;88162;-62
2021/12/03 05:18:27;;;;;;;22.83;18.05;;;1.80;89.70;1.50;96823.00;;;;4980030;28;87422;-61
2021/12/03 05:20:58;;;;;;;19.67;17.30;;;1.80;89.40;1.50;96824.00;;;;4979509;28;87142;-61
2021/12/03 05:23:27;;;;;;;20.48;17.10;;;1.90;89.50;1.60;96827.00;;;;4980019;28;86998;-61
2021/12/03 05:25:54;;;;;;;18.00;15.98;;;1.90;89.20;1.60;96818.00;;;;4978857;28;88416;-61
2021/12/03 05:28:21;;;;;;;23.90;18.15;;;1.90;89.20;1.60;96830.00;;;;4979436;28;88333;-61
2021/12/03 05:30:48;;;;;;;21.45;17.38;;;1.90;89.00;1.50;96835.00;;;;4979893;28;87365;-61
2021/12/03 05:33:15;;;;;;;19.67;17.60;;;1.80;88.70;1.40;96835.00;;;;4978243;28;87086;-61
2021/12/03 05:35:41;;;;;;;22.60;17.05;;;1.80;88.90;1.40;96826.00;;;;4979896;28;87773;-61
2021/12/03 05:38:07;;;;;;;18.15;16.13;;;1.80;88.90;1.50;96837.00;;;;4979677;28;87330;-61
2021/12/03 05:40:33;;;;;;;17.75;15.02;;;1.80;89.00;1.40;96842.00;;;;4979577;28;87147;-61
2021/12/03 05:42:59;;;;;;;17.90;15.98;;;1.80;88.90;1.40;96842.00;;;;4980407;28;86370;-63
2021/12/03 05:45:32;;;;;;;17.95;16.08;;;1.80;88.90;1.40;96849.00;;;;4979162;28;90186;-61
2021/12/03 05:47:59;;;;;;;17.65;15.82;;;1.70;88.90;1.30;96854.00;;;;4978923;28;87656;-61
2021/12/03 05:50:26;;;;;;;17.35;15.52;;;1.70;89.20;1.30;96858.00;;;;4969102;28;88315;-61
2021/12/03 05:52:54;;;;;;;18.15;15.52;;;1.70;89.30;1.20;96864.00;;;;4959956;28;87255;-60
2021/12/03 05:55:21;;;;;;;18.55;16.75;;;1.60;89.20;1.20;96861.00;;;;4961542;28;87513;-61
2021/12/03 05:57:47;;;;;;;19.73;17.77;;;1.60;89.40;1.10;96853.00;;;;4979200;28;88709;-62
2021/12/03 06:00:39;;;;;;;21.20;18.80;;;1.50;89.70;1.00;96874.00;;;;4994500;28;87451;-61
2021/12/03 06:03:05;;;;;;;21.23;18.25;;;1.40;89.80;0.90;96869.00;;;;4979736;28;87308;-61
2021/12/03 06:05:33;;;;;;;20.15;18.05;;;1.40;89.80;0.90;96875.00;;;;4979405;28;87667;-61
2021/12/03 06:08:00;;;;;;;19.95;17.83;;;1.40;90.20;0.90;96882.00;;;;4994970;28;89920;-61
2021/12/03 06:10:27;;;;;;;22.42;19.20;;;1.40;90.20;1.00;96875.00;;;;4979784;28;87349;-61
2021/12/03 06:12:53;;;;;;;20.00;18.08;;;1.40;90.00;1.00;96885.00;;;;4979602;28;87240;-62
2021/12/03 06:15:20;;;;;;;21.23;19.25;;;1.40;90.10;1.00;96889.00;;;;4975929;28;88647;-64
2021/12/03 06:17:47;;;;;;;24.90;21.00;;;1.40;90.00;1.10;96896.00;;;;4975254;28;89268;-62
2021/12/03 06:20:15;;;;;;;20.40;18.35;;;1.50;89.90;1.10;96895.00;;;;4974913;28;87428;-61
2021/12/03 06:22:41;;;;;;;20.35;18.33;;;1.50;89.90;1.00;96893.00;;;;4959883;28;87398;-61
2021/12/03 06:25:10;;;;;;;23.42;20.92;;;1.40;89.80;0.90;96890.00;;;;4959135;28;87829;-62
2021/12/03 06:27:38;;;;;;;22.08;19.95;;;1.30;89.80;0.80;96899.00;;;;4959133;28;87618;-62
2021/12/03 06:30:09;;;;;;;25.33;22.60;;;1.30;90.20;0.80;96888.00;;;;4959226;28;87216;-61
2021/12/03 06:32:36;;;;;;;23.45;21.00;;;1.20;90.30;0.70;96896.00;;;;4960260;28;86585;-61
2021/12/03 06:35:05;;;;;;;23.17;20.67;;;1.20;90.40;0.70;96897.00;;;;4959405;28;87506;-61
2021/12/03 06:37:31;;;;;;;24.33;21.80;;;1.10;90.50;0.70;96901.00;;;;4959326;28;87402;-62
2021/12/03 06:39:58;;;;;;;23.60;21.35;;;1.10;90.50;0.70;96903.00;;;;4958128;28;87853;-61
2021/12/03 06:42:24;;;;;;;23.95;20.63;;;1.10;90.50;0.70;96909.00;;;;4959033;28;87405;-61
2021/12/03 06:44:50;;;;;;;24.33;21.63;;;1.10;90.60;0.80;96927.00;;;;4959167;28;87210;-60
2021/12/03 06:47:16;;;;;;;22.05;19.95;;;1.20;90.40;0.90;96922.00;;;;4959140;28;88246;-60
2021/12/03 06:49:42;;;;;;;21.48;19.27;;;1.30;90.40;0.90;96931.00;;;;4962780;28;87548;-61
2021/12/03 06:52:12;;;;;;;23.90;19.38;;;1.30;90.30;1.00;96929.00;;;;4978286;28;87453;-60
2021/12/03 06:54:38;;;;;;;22.17;19.88;;;1.40;90.10;1.20;96929.00;;;;4978629;28;87630;-60
2021/12/03 06:57:08;;;;;;;22.98;18.95;;;1.50;89.90;1.30;96931.00;;;;4962695;28;88471;-63
2021/12/03 06:59:36;;;;;;;22.33;18.35;;;1.60;89.60;1.30;96931.00;;;;4959380;28;87349;-63
2021/12/03 07:02:04;;;;;;;21.23;18.85;;;1.70;89.30;1.30;96941.00;;;;4959308;28;87239;-64
2021/12/03 07:04:30;;;;;;;20.55;18.30;;;1.70;88.60;1.30;96942.00;;;;4958426;28;88687;-65
2021/12/03 07:06:56;;;;;;;20.30;18.20;;;1.70;88.70;1.30;96948.00;;;;4959199;28;88292;-60
2021/12/03 07:09:22;;;;;;;25.77;19.33;;;1.70;88.70;1.30;96927.00;;;;4958911;28;87396;-61
2021/12/03 07:11:48;;;;;;;22.73;20.02;;;1.70;88.50;1.30;96933.00;;;;4959420;28;87347;-62
2021/12/03 07:14:14;;;;;;;21.08;18.92;;;1.70;88.40;1.30;96945.00;;;;4959514;28;87803;-61
2021/12/03 07:16:41;;;;;;;20.50;18.42;;;1.60;88.30;1.30;96949.00;;;;4964404;28;88355;-61
2021/12/03 07:19:07;;;;;;;19.30;17.38;;;1.60;88.50;1.20;96937.00;;;;4958944;28;87251;-62
2021/12/03 07:21:34;;;;;;;21.80;18.55;;;1.60;88.80;1.30;96933.00;;;;4959264;28;86459;-62
2021/12/03 07:24:00;;;;;;;23.95;18.85;;;1.60;88.80;1.30;96931.00;;;;4969482;28;87705;-61
2021/12/03 07:26:26;;;;;;;19.95;17.88;;;1.70;88.80;1.40;96929.00;;;;4978419;28;88054;-61
2021/12/03 07:28:54;;;;;;;25.83;18.75;;;1.70;88.70;1.50;96933.00;;;;4978078;28;88239;-61
2021/12/03 07:31:20;;;;;;;20.45;18.27;;;1.80;88.40;1.50;96935.00;;;;4970786;28;87275;-61
2021/12/03 07:33:47;;;;;;;21.38;18.65;;;1.80;88.40;1.50;96946.00;;;;4958756;28;87673;-61
2021/12/03 07:36:13;;;;;;;21.52;19.42;;;1.80;88.30;1.60;96942.00;;;;4959184;28;87438;-61
2021/12/03 07:38:39;;;;;;;20.77;18.85;;;1.90;88.20;1.50;96958.00;;;;4958783;28;86985;-61
2021/12/03 07:41:06;;;;;;;19.38;16.73;;;1.80;87.90;1.60;96963.00;;;;4958968;28;86975;-61
2021/12/03 07:43:32;;;;;;;20.17;17.73;;;1.90;88.20;1.60;96962.00;;;;4956968;28;90777;-62
2021/12/03 07:45:58;;;;;;;19.60;15.25;;;1.90;87.90;1.70;96954.00;;;;4959573;28;87398;-62
2021/12/03 07:48:24;;;;;;;17.83;15.23;;;2.00;87.70;1.70;96959.00;;;;4958295;28;87454;-63
2021/12/03 07:50:53;;;;;;;16.88;14.90;;;2.00;87.50;1.70;96962.00;;;;4971533;28;87359;-62
2021/12/03 07:53:20;;;;;;;17.58;15.77;;;2.00;87.20;1.70;96966.00;;;;4980518;28;88532;-64
2021/12/03 07:55:47;;;;;;;20.33;15.57;;;1.90;87.20;1.70;96968.00;;;;4975133;28;90964;-63
2021/12/03 07:58:14;;;;;;;19.00;15.65;;;2.00;87.30;1.70;96959.00;;;;4961800;28;87239;-63
2021/12/03 08:00:41;;;;;;;18.02;16.02;;;2.00;87.00;1.60;96970.00;;;;4960882;28;87438;-64
2021/12/03 08:03:07;;;;;;;17.40;15.60;;;1.90;86.90;1.50;96969.00;;;;4960456;28;88065;-64
2021/12/03 08:05:33;;;;;;;15.88;13.70;;;1.90;86.80;1.50;96975.00;;;;4959352;28;87449;-63
2021/12/03 08:07:59;;;;;;;15.65;13.70;;;1.80;86.90;1.40;96978.00;;;;4959776;28;87235;-62
2021/12/03 08:10:27;;;;;;;16.65;14.35;;;1.80;86.60;1.40;96970.00;;;;4960604;28;86460;-63
2021/12/03 08:12:53;;;;;;;15.20;13.70;;;1.80;86.70;1.40;96979.00;;;;4960325;28;87669;-62
2021/12/03 08:15:20;;;;;;;15.70;14.13;;;1.80;86.60;1.40;96981.00;;;;4963135;28;87463;-61
2021/12/03 08:17:49;;;;;;;16.92;13.45;;;1.80;86.60;1.40;96965.00;;;;4979708;28;88306;-61
2021/12/03 08:20:18;;;;;;;15.60;13.35;;;1.80;86.60;1.50;96973.00;;;;4980930;28;87290;-62
2021/12/03 08:22:44;;;;;;;14.43;12.13;;;1.80;86.10;1.50;96965.00;;;;4980780;28;87674;-62
2021/12/03 08:25:12;;;;;;;18.13;13.48;;;1.90;86.50;1.60;96970.00;;;;4996739;28;87705;-62
2021/12/03 08:27:39;;;;;;;25.40;14.50;;;1.90;85.60;1.60;96964.00;;;;4997273;28;87300;-62
2021/12/03 08:30:09;;;;;;;21.13;13.15;;;2.00;85.70;1.70;96978.00;;;;4980933;28;87345;-62
2021/12/03 08:32:35;;;;;;;14.20;11.75;;;2.10;85.30;1.70;96980.00;;;;4981308;28;87689;-62
2021/12/03 08:35:03;;;;;;;13.88;12.32;;;2.10;84.70;1.80;96978.00;;;;4981522;28;87505;-62
2021/12/03 08:37:30;;;;;;;15.25;11.60;;;2.20;84.30;1.90;97003.00;;;;4981234;28;87247;-66
2021/12/03 08:39:56;;;;;;;15.18;11.90;;;2.30;84.30;2.00;96989.00;;;;4980173;28;87494;-62
2021/12/03 08:42:22;;;;;;;17.52;11.82;;;2.30;83.40;2.10;96980.00;;;;4980723;28;88260;-62
2021/12/03 08:44:48;;;;;;;20.10;11.13;;;2.50;84.10;2.20;96987.00;;;;4996260;28;88790;-62
2021/12/03 08:47:16;;;;;;;32.30;12.65;;;2.50;82.50;2.30;96987.00;;;;4980944;28;87119;-63
2021/12/03 08:49:54;;;;;;;17.30;10.13;;;2.60;82.40;2.40;96989.00;;;;4976378;28;87429;-62
2021/12/03 08:52:30;;;;;;;17.20;9.27;;;2.70;81.50;2.40;96997.00;;;;4961100;28;87812;-63
2021/12/03 08:54:56;;;;;;;13.98;9.75;;;2.70;80.30;2.40;96993.00;;;;4961050;28;87398;-63
2021/12/03 08:57:30;;;;;;;15.07;9.80;;;2.70;80.30;2.30;96999.00;;;;4980012;28;87442;-64
2021/12/03 09:00:10;;;;;;;11.60;9.95;;;2.60;80.20;2.30;96990.00;;;;4948130;28;86852;-61
2021/12/03 09:02:37;;;;;;;15.10;10.50;;;2.60;81.10;2.30;96987.00;;;;4980567;28;88154;-64
2021/12/03 09:05:04;;;;;;;14.40;10.32;;;2.60;81.10;2.30;96987.00;;;;4980737;28;87592;-63
2021/12/03 09:07:30;;;;;;;13.23;10.80;;;2.60;80.30;2.30;97001.00;;;;4979746;28;88241;-63
2021/12/03 09:09:57;;;;;;;11.25;10.00;;;2.60;80.30;2.20;97003.00;;;;4980662;28;86956;-62
2021/12/03 09:12:23;;;;;;;12.73;10.35;;;2.50;81.20;2.20;97001.00;;;;4995827;28;90505;-62
2021/12/03 09:14:53;;;;;;;14.68;11.02;;;2.50;81.50;2.20;97004.00;;;;4995202;28;90613;-63
2021/12/03 09:17:39;;;;;;;14.73;10.27;;;2.50;81.60;2.20;97002.00;;;;4961891;28;87327;-62
2021/12/03 09:23:01;;;;;;;12.30;10.35;;;2.40;82.70;2.10;97022.00;;;;4991687;28;88810;-61
2021/12/03 09:25:33;;;;;;;14.40;10.43;;;2.40;82.70;2.20;97016.00;;;;4978466;28;87443;-62
2021/12/03 09:28:03;;;;;;;14.45;10.88;;;2.40;82.70;2.20;97020.00;;;;4978593;28;87325;-62
2021/12/03 09:30:36;;;;;;;13.75;11.35;;;2.40;82.70;2.20;96992.00;;;;4979963;28;87019;-60
2021/12/03 09:33:07;;;;;;;14.32;11.75;;;2.50;82.80;2.20;96999.00;;;;4978034;28;88715;-64
2021/12/03 09:35:38;;;;;;;12.83;10.47;;;2.50;82.90;2.20;96999.00;;;;4979495;28;88458;-64
2021/12/03 09:38:04;;;;;;;12.83;10.67;;;2.50;82.90;2.20;96998.00;;;;4979703;28;87336;-63
2021/12/03 09:40:31;;;;;;;15.60;10.90;;;2.50;82.90;2.20;96996.00;;;;4979840;28;87497;-60
2021/12/03 09:42:58;;;;;;;13.93;11.10;;;2.50;82.80;2.20;97001.00;;;;4980334;28;87269;-61
2021/12/03 09:45:24;;;;;;;13.55;10.98;;;2.50;82.90;2.20;97004.00;;;;4976329;28;87913;-60
2021/12/03 09:47:52;;;;;;;13.93;10.82;;;2.50;82.90;2.20;97002.00;;;;4980146;28;87353;-61
2021/12/03 09:50:18;;;;;;;12.20;10.60;;;2.50;83.00;2.20;97010.00;;;;4986884;28;86394;-61
2021/12/03 09:55:31;;;;;;;11.40;9.70;;;2.50;82.80;2.20;97023.00;;;;4963022;28;87711;-61
2021/12/03 09:58:19;;;;;;;12.52;10.07;;;2.40;82.70;2.20;97030.00;;;;4980016;28;88403;-61
2021/12/03 10:00:56;;;;;;;14.05;10.50;;;2.50;82.90;2.10;97035.00;;;;4992246;28;87104;-62
2021/12/03 10:17:32;;;;;;;15.63;10.73;;;2.40;82.70;2.20;97022.00;;;;4963678;28;87394;-62
2021/12/03 10:36:41;;;;;;;12.52;9.88;;;2.30;83.00;2.00;96998.00;;;;4942734;28;89984;-63
2021/12/03 10:47:33;;;;;;;12.13;9.20;;;2.30;83.40;2.00;97014.00;;;;4977441;28;87636;-61
2021/12/03 11:16:11;;;;;;;12.88;10.57;;;2.40;83.80;2.20;97032.00;;;;4942105;28;87634;-62
2021/12/03 11:27:21;;;;;;;13.85;12.02;;;2.40;83.90;2.10;96996.00;;;;4981016;28;87343;-62
2021/12/03 11:35:10;;;;;;;14.38;12.07;;;2.30;84.30;2.00;97023.00;;;;4967181;28;88337;-63
2021/12/03 12:03:15;;;;;;;15.90;12.05;;;2.20;84.50;1.90;97035.00;;;;4959373;28;87167;-62
2021/12/03 12:06:17;;;;;;;15.93;11.07;;;2.20;84.50;1.90;97041.00;;;;4959869;28;87747;-61
2021/12/03 12:25:00;;;;;;;13.85;11.43;;;2.10;85.40;1.80;96996.00;;;;4975526;28;87009;-63
2021/12/03 12:34:26;;;;;;;30.95;12.25;;;2.00;84.90;1.70;96977.00;;;;4980245;28;87021;-61
2021/12/03 12:49:02;;;;;;;13.60;11.73;;;1.90;85.10;1.60;96966.00;;;;4980998;28;87305;-62
2021/12/03 13:58:38;;;;;;;18.95;15.73;;;1.80;86.80;1.40;96932.00;;;;4979547;28;87693;-61
2021/12/03 14:14:30;;;;;;;24.45;21.92;;;1.60;88.60;1.20;96953.00;;;;4978112;28;87440;-61
2021/12/03 14:32:23;;;;;;;36.57;31.53;;;1.20;90.60;0.80;96943.00;;;;4959807;28;87649;-61
2021/12/03 14:44:51;;;;;;;38.63;34.72;;;1.00;91.60;0.60;96933.00;;;;4959327;28;87225;-61
2021/12/03 14:53:15;;;;;;;39.65;35.50;;;1.00;92.00;0.60;96907.00;;;;4959263;28;87039;-62
2021/12/03 14:55:56;;;;;;;108.53;69.72;;;0.90;92.10;0.60;96913.00;;;;4962784;28;87254;-61
2021/12/03 14:58:29;;;;;;;48.10;43.10;;;0.90;92.10;0.60;96908.00;;;;4978546;28;87348;-64
2021/12/03 15:00:59;;;;;;;43.25;38.70;;;1.00;92.30;0.60;96897.00;;;;4978755;28;87208;-61
2021/12/03 15:03:47;;;;;;;94.68;60.13;;;1.00;92.30;0.60;96891.00;;;;4960467;28;91323;-61
2021/12/03 15:06:49;;;;;;;46.05;41.03;;;1.00;92.30;0.60;96893.00;;;;4978541;28;88363;-60
2021/12/03 15:09:31;;;;;;;47.13;41.60;;;1.00;92.30;0.60;96895.00;;;;4976987;28;87272;-62
2021/12/03 15:18:33;;;;;;;46.40;41.47;;;1.00;92.40;0.60;96903.00;;;;4974041;28;87539;-61
2021/12/03 15:30:56;;;;;;;41.72;37.60;;;1.00;92.50;0.60;96881.00;;;;4955933;28;88032;-62
2021/12/03 16:08:15;;;;;;;120.95;61.30;;;1.00;92.60;0.60;96850.00;;;;4978325;28;87684;-62